sensor_id;sensor_type;location;lat;lon;timestamp;pressure;altitude;pressure_sealevel;temperature;humidity
25650;BME280;13505;45.196;5.696;2024-01-07T05:33:10;98382.94;;;4.60;100.00
25650;BME280;13505;45.196;5.696;2024-01-07T05:38:00;98379.41;;;4.61;100.00
25650;BME280;13505;45.196;5.696;2024-01-07T05:42:51;98390.88;;;4.57;100.00
25650;BME280;13505;45.196;5.696;2024-01-07T05:47:41;98388.97;;;4.63;100.00
25650;BME280;13505;45.196;5.696;2024-01-07T05:52:32;98390.13;;;4.54;100.00
25650;BME280;13505;45.196;5.696;2024-01-07T05:57:22;98390.47;;;4.43;100.00
25650;BME280;13505;45.196;5.696;2024-01-07T06:02:12;98400.13;;;4.41;100.00
25650;BME280;13505;45.196;5.696;2024-01-07T06:07:03;98395.72;;;4.43;100.00
25650;BME280;13505;45.196;5.696;2024-01-07T06:11:53;98399.72;;;4.53;100.00
25650;BME280;13505;45.196;5.696;2024-01-07T06:16:44;98397.09;;;4.53;100.00
25650;BME280;13505;45.196;5.696;2024-01-07T06:21:34;98411.81;;;4.56;100.00
25650;BME280;13505;45.196;5.696;2024-01-07T06:26:24;98402.06;;;4.61;100.00
25650;BME280;13505;45.196;5.696;2024-01-07T06:31:15;98411.66;;;4.33;100.00
25650;BME280;13505;45.196;5.696;2024-01-07T06:36:05;98410.75;;;4.35;100.00
25650;BME280;13505;45.196;5.696;2024-01-07T06:40:56;98412.19;;;4.18;100.00
25650;BME280;13505;45.196;5.696;2024-01-07T06:45:50;98420.06;;;4.16;100.00
25650;BME280;13505;45.196;5.696;2024-01-07T06:50:41;98427.34;;;4.07;100.00
25650;BME280;13505;45.196;5.696;2024-01-07T06:55:31;98430.47;;;4.18;100.00
25650;BME280;13505;45.196;5.696;2024-01-07T07:00:22;98426.94;;;4.19;100.00
25650;BME280;13505;45.196;5.696;2024-01-07T07:05:12;98441.16;;;4.37;100.00
25650;BME280;13505;45.196;5.696;2024-01-07T07:10:03;98447.38;;;4.33;100.00
25650;BME280;13505;45.196;5.696;2024-01-07T07:14:54;98437.19;;;4.25;100.00
25650;BME280;13505;45.196;5.696;2024-01-07T07:19:44;98448.44;;;4.27;100.00
25650;BME280;13505;45.196;5.696;2024-01-07T07:24:34;98448.06;;;4.11;100.00
25650;BME280;13505;45.196;5.696;2024-01-07T07:29:25;98450.91;;;4.32;100.00
25650;BME280;13505;45.196;5.696;2024-01-07T07:34:15;98458.53;;;4.10;100.00
25650;BME280;13505;45.196;5.696;2024-01-07T07:39:06;98454.78;;;4.18;100.00
25650;BME280;13505;45.196;5.696;2024-01-07T07:43:56;98460.16;;;4.14;100.00
25650;BME280;13505;45.196;5.696;2024-01-07T07:48:46;98473.69;;;3.98;100.00
25650;BME280;13505;45.196;5.696;2024-01-07T07:53:39;98473.81;;;4.22;100.00
25650;BME280;13505;45.196;5.696;2024-01-07T07:58:30;98468.22;;;4.06;100.00
25650;BME280;13505;45.196;5.696;2024-01-07T08:03:20;98484.25;;;3.94;100.00
25650;BME280;13505;45.196;5.696;2024-01-07T08:08:11;98491.47;;;4.14;100.00
25650;BME280;13505;45.196;5.696;2024-01-07T08:13:01;98492.09;;;4.22;100.00
25650;BME280;13505;45.196;5.696;2024-01-07T08:17:51;98498.97;;;4.25;100.00
25650;BME280;13505;45.196;5.696;2024-01-07T08:22:42;98497.53;;;4.16;100.00
25650;BME280;13505;45.196;5.696;2024-01-07T08:27:32;98497.00;;;4.04;100.00
25650;BME280;13505;45.196;5.696;2024-01-07T08:32:23;98506.59;;;4.02;100.00
25650;BME280;13505;45.196;5.696;2024-01-07T08:37:14;98505.34;;;4.16;100.00
25650;BME280;13505;45.196;5.696;2024-01-07T08:42:04;98515.44;;;3.98;100.00
25650;BME280;13505;45.196;5.696;2024-01-07T08:46:55;98511.91;;;3.99;100.00
25650;BME280;13505;45.196;5.696;2024-01-07T08:51:45;98514.97;;;4.14;100.00
25650;BME280;13505;45.196;5.696;2024-01-07T08:56:35;98519.66;;;4.02;100.00
25650;BME280;13505;45.196;5.696;2024-01-07T09:01:26;98514.78;;;4.20;100.00
25650;BME280;13505;45.196;5.696;2024-01-07T09:06:16;98523.16;;;4.01;100.00
25650;BME280;13505;45.196;5.696;2024-01-07T09:11:38;98512.34;;;4.14;100.00
25650;BME280;13505;45.196;5.696;2024-01-07T09:16:32;98524.22;;;4.24;100.00
25650;BME280;13505;45.196;5.696;2024-01-07T09:21:22;98530.22;;;4.28;100.00
25650;BME280;13505;45.196;5.696;2024-01-07T09:27:09;98527.53;;;4.31;100.00
25650;BME280;13505;45.196;5.696;2024-01-07T09:32:19;98531.88;;;4.30;100.00
25650;BME280;13505;45.196;5.696;2024-01-07T09:37:10;98542.44;;;4.27;100.00
25650;BME280;13505;45.196;5.696;2024-01-07T09:42:01;98542.44;;;4.27;100.00
25650;BME280;13505;45.196;5.696;2024-01-07T09:47:14;98531.63;;;4.38;100.00
25650;BME280;13505;45.196;5.696;2024-01-07T09:52:08;98536.63;;;4.46;100.00
25650;BME280;13505;45.196;5.696;2024-01-07T09:57:03;98543.72;;;4.42;100.00
25650;BME280;13505;45.196;5.696;2024-01-07T10:02:14;98548.72;;;4.49;100.00
25650;BME280;13505;45.196;5.696;2024-01-07T10:07:23;98545.88;;;4.56;100.00
25650;BME280;13505;45.196;5.696;2024-01-07T10:12:52;98538.50;;;4.42;100.00
25650;BME280;13505;45.196;5.696;2024-01-07T10:17:44;98547.13;;;4.44;100.00
25650;BME280;13505;45.196;5.696;2024-01-07T10:22:38;98547.38;;;4.65;100.00
25650;BME280;13505;45.196;5.696;2024-01-07T10:27:50;98543.47;;;4.50;100.00
25650;BME280;13505;45.196;5.696;2024-01-07T10:32:42;98541.63;;;4.54;100.00
25650;BME280;13505;45.196;5.696;2024-01-07T10:37:33;98536.25;;;4.58;100.00
25650;BME280;13505;45.196;5.696;2024-01-07T10:42:24;98536.28;;;4.57;100.00
25650;BME280;13505;45.196;5.696;2024-01-07T10:47:15;98526.59;;;4.60;100.00
25650;BME280;13505;45.196;5.696;2024-01-07T10:52:09;98539.19;;;4.47;100.00
25650;BME280;13505;45.196;5.696;2024-01-07T11:02:30;98522.16;;;4.64;100.00
25650;BME280;13505;45.196;5.696;2024-01-07T11:07:24;98527.66;;;4.55;100.00
25650;BME280;13505;45.196;5.696;2024-01-07T11:12:23;98518.78;;;4.60;100.00
25650;BME280;13505;45.196;5.696;2024-01-07T11:17:13;98506.75;;;4.55;100.00
25650;BME280;13505;45.196;5.696;2024-01-07T11:22:25;98517.75;;;4.65;100.00
25650;BME280;13505;45.196;5.696;2024-01-07T11:27:17;98512.69;;;4.60;100.00
25650;BME280;13505;45.196;5.696;2024-01-07T11:32:12;98511.63;;;4.66;100.00
25650;BME280;13505;45.196;5.696;2024-01-07T11:37:05;98510.72;;;4.67;100.00
25650;BME280;13505;45.196;5.696;2024-01-07T11:41:57;98526.34;;;4.68;100.00
25650;BME280;13505;45.196;5.696;2024-01-07T11:46:48;98523.78;;;4.40;100.00
25650;BME280;13505;45.196;5.696;2024-01-07T11:51:39;98515.22;;;4.63;100.00
25650;BME280;13505;45.196;5.696;2024-01-07T11:56:29;98507.84;;;4.47;100.00
25650;BME280;13505;45.196;5.696;2024-01-07T12:01:20;98501.41;;;4.59;100.00
25650;BME280;13505;45.196;5.696;2024-01-07T12:06:10;98509.78;;;4.69;100.00
25650;BME280;13505;45.196;5.696;2024-01-07T12:11:07;98521.16;;;4.67;100.00
25650;BME280;13505;45.196;5.696;2024-01-07T12:15:59;98511.13;;;4.54;100.00
25650;BME280;13505;45.196;5.696;2024-01-07T12:20:59;98513.44;;;4.64;100.00
25650;BME280;13505;45.196;5.696;2024-01-07T12:25:49;98510.63;;;4.70;100.00
25650;BME280;13505;45.196;5.696;2024-01-07T12:30:40;98521.00;;;4.44;100.00
25650;BME280;13505;45.196;5.696;2024-01-07T12:35:30;98510.06;;;4.60;100.00
25650;BME280;13505;45.196;5.696;2024-01-07T12:40:21;98510.56;;;4.71;100.00
25650;BME280;13505;45.196;5.696;2024-01-07T12:45:13;98507.97;;;4.44;100.00
25650;BME280;13505;45.196;5.696;2024-01-07T12:50:04;98504.09;;;4.56;100.00
25650;BME280;13505;45.196;5.696;2024-01-07T12:54:54;98508.94;;;4.69;100.00
25650;BME280;13505;45.196;5.696;2024-01-07T12:59:46;98515.34;;;4.58;100.00
25650;BME280;13505;45.196;5.696;2024-01-07T13:04:36;98518.94;;;4.54;100.00
25650;BME280;13505;45.196;5.696;2024-01-07T13:09:26;98518.13;;;4.54;100.00
25650;BME280;13505;45.196;5.696;2024-01-07T13:14:17;98506.75;;;4.55;100.00
25650;BME280;13505;45.196;5.696;2024-01-07T13:19:07;98517.50;;;4.45;100.00
25650;BME280;13505;45.196;5.696;2024-01-07T13:24:00;98508.09;;;4.40;100.00
25650;BME280;13505;45.196;5.696;2024-01-07T13:28:51;98519.16;;;4.48;100.00
25650;BME280;13505;45.196;5.696;2024-01-07T13:33:41;98516.34;;;4.54;100.00
25650;BME280;13505;45.196;5.696;2024-01-07T13:38:32;98527.00;;;4.48;100.00
25650;BME280;13505;45.196;5.696;2024-01-07T13:43:22;98523.91;;;4.35;100.00
25650;BME280;13505;45.196;5.696;2024-01-07T13:48:15;98505.53;;;4.38;100.00
25650;BME280;13505;45.196;5.696;2024-01-07T13:53:06;98522.00;;;4.40;100.00
25650;BME280;13505;45.196;5.696;2024-01-07T13:57:56;98521.44;;;4.30;100.00
25650;BME280;13505;45.196;5.696;2024-01-07T14:02:46;98525.72;;;4.33;100.00
25650;BME280;13505;45.196;5.696;2024-01-07T14:07:39;98534.53;;;4.29;100.00
25650;BME280;13505;45.196;5.696;2024-01-07T14:12:30;98532.81;;;4.28;100.00
25650;BME280;13505;45.196;5.696;2024-01-07T14:17:21;98539.56;;;4.35;100.00
25650;BME280;13505;45.196;5.696;2024-01-07T14:22:11;98535.25;;;4.34;100.00
25650;BME280;13505;45.196;5.696;2024-01-07T14:27:03;98538.84;;;4.30;100.00
25650;BME280;13505;45.196;5.696;2024-01-07T14:31:53;98542.19;;;4.35;100.00
25650;BME280;13505;45.196;5.696;2024-01-07T14:36:43;98533.78;;;4.25;100.00
25650;BME280;13505;45.196;5.696;2024-01-07T14:41:34;98540.78;;;4.23;100.00
25650;BME280;13505;45.196;5.696;2024-01-07T14:46:24;98538.91;;;4.28;100.00
25650;BME280;13505;45.196;5.696;2024-01-07T14:51:15;98551.75;;;4.35;100.00
25650;BME280;13505;45.196;5.696;2024-01-07T14:56:05;98548.72;;;4.20;100.00
25650;BME280;13505;45.196;5.696;2024-01-07T15:00:56;98557.75;;;4.08;100.00
25650;BME280;13505;45.196;5.696;2024-01-07T15:05:48;98565.53;;;4.11;100.00
25650;BME280;13505;45.196;5.696;2024-01-07T15:10:38;98558.00;;;4.00;100.00
25650;BME280;13505;45.196;5.696;2024-01-07T15:15:29;98557.06;;;4.03;100.00
25650;BME280;13505;45.196;5.696;2024-01-07T15:20:19;98569.38;;;3.98;100.00
25650;BME280;13505;45.196;5.696;2024-01-07T15:25:10;98567.34;;;4.09;100.00
25650;BME280;13505;45.196;5.696;2024-01-07T15:30:00;98557.72;;;4.10;100.00
25650;BME280;13505;45.196;5.696;2024-01-07T15:34:51;98569.78;;;4.14;100.00
25650;BME280;13505;45.196;5.696;2024-01-07T15:39:41;98571.91;;;4.01;100.00
25650;BME280;13505;45.196;5.696;2024-01-07T15:44:31;98575.06;;;4.12;100.00
25650;BME280;13505;45.196;5.696;2024-01-07T15:49:23;98576.91;;;4.09;100.00
25650;BME280;13505;45.196;5.696;2024-01-07T15:54:14;98583.31;;;3.97;100.00
25650;BME280;13505;45.196;5.696;2024-01-07T15:59:04;98579.66;;;3.72;100.00
25650;BME280;13505;45.196;5.696;2024-01-07T16:03:54;98585.88;;;4.00;100.00
25650;BME280;13505;45.196;5.696;2024-01-07T16:08:45;98592.03;;;3.96;100.00
25650;BME280;13505;45.196;5.696;2024-01-07T16:13:35;98592.13;;;3.94;100.00
25650;BME280;13505;45.196;5.696;2024-01-07T16:18:26;98606.81;;;3.97;100.00
25650;BME280;13505;45.196;5.696;2024-01-07T16:23:17;98601.56;;;3.98;100.00
25650;BME280;13505;45.196;5.696;2024-01-07T16:28:07;98600.84;;;3.93;100.00
25650;BME280;13505;45.196;5.696;2024-01-07T16:32:57;98610.50;;;3.89;100.00
25650;BME280;13505;45.196;5.696;2024-01-07T16:37:48;98613.91;;;3.91;100.00
25650;BME280;13505;45.196;5.696;2024-01-07T16:42:38;98613.59;;;3.72;100.00
25650;BME280;13505;45.196;5.696;2024-01-07T16:47:29;98611.22;;;3.95;100.00
25650;BME280;13505;45.196;5.696;2024-01-07T16:52:19;98612.66;;;4.05;100.00
25650;BME280;13505;45.196;5.696;2024-01-07T16:57:10;98615.25;;;4.07;100.00
25650;BME280;13505;45.196;5.696;2024-01-07T17:02:00;98624.78;;;4.08;100.00
25650;BME280;13505;45.196;5.696;2024-01-07T17:06:50;98622.34;;;4.01;100.00
25650;BME280;13505;45.196;5.696;2024-01-07T17:11:41;98628.53;;;3.99;100.00
25650;BME280;13505;45.196;5.696;2024-01-07T17:16:31;98629.25;;;4.02;100.00
25650;BME280;13505;45.196;5.696;2024-01-07T17:21:24;98637.06;;;4.04;100.00
25650;BME280;13505;45.196;5.696;2024-01-07T17:26:14;98643.47;;;3.92;100.00
25650;BME280;13505;45.196;5.696;2024-01-07T17:31:05;98643.44;;;3.94;100.00
25650;BME280;13505;45.196;5.696;2024-01-07T17:35:55;98648.78;;;3.89;100.00
25650;BME280;13505;45.196;5.696;2024-01-07T17:40:46;98650.97;;;3.71;100.00
25650;BME280;13505;45.196;5.696;2024-01-07T17:45:37;98656.72;;;3.84;100.00
25650;BME280;13505;45.196;5.696;2024-01-07T17:50:27;98652.97;;;3.95;100.00
25650;BME280;13505;45.196;5.696;2024-01-07T17:55:18;98662.00;;;3.83;100.00
25650;BME280;13505;45.196;5.696;2024-01-07T18:00:09;98665.56;;;3.79;100.00
25650;BME280;13505;45.196;5.696;2024-01-07T18:05:00;98673.91;;;3.93;100.00
25650;BME280;13505;45.196;5.696;2024-01-07T18:09:50;98665.19;;;3.59;100.00
25650;BME280;13505;45.196;5.696;2024-01-07T18:14:43;98657.97;;;3.69;100.00
25650;BME280;13505;45.196;5.696;2024-01-07T18:19:34;98669.75;;;3.86;100.00
25650;BME280;13505;45.196;5.696;2024-01-07T18:24:24;98661.00;;;3.87;100.00
25650;BME280;13505;45.196;5.696;2024-01-07T18:29:15;98661.59;;;3.97;100.00
25650;BME280;13505;45.196;5.696;2024-01-07T18:34:06;98658.16;;;3.96;100.00
25650;BME280;13505;45.196;5.696;2024-01-07T18:38:57;98666.25;;;3.85;100.00
25650;BME280;13505;45.196;5.696;2024-01-07T18:43:47;98660.78;;;3.96;100.00
25650;BME280;13505;45.196;5.696;2024-01-07T18:48:37;98667.72;;;3.96;100.00
25650;BME280;13505;45.196;5.696;2024-01-07T18:53:28;98658.72;;;4.08;100.00
25650;BME280;13505;45.196;5.696;2024-01-07T18:58:18;98662.13;;;4.10;100.00
25650;BME280;13505;45.196;5.696;2024-01-07T19:03:08;98665.44;;;4.16;100.00
25650;BME280;13505;45.196;5.696;2024-01-07T19:07:59;98672.41;;;4.16;100.00
25650;BME280;13505;45.196;5.696;2024-01-07T19:12:51;98676.81;;;4.14;100.00
25650;BME280;13505;45.196;5.696;2024-01-07T19:17:41;98682.88;;;4.16;100.00
25650;BME280;13505;45.196;5.696;2024-01-07T19:22:37;98689.03;;;4.12;100.00
25650;BME280;13505;45.196;5.696;2024-01-07T19:27:30;98685.75;;;4.05;100.00
25650;BME280;13505;45.196;5.696;2024-01-07T19:32:22;98682.38;;;4.01;100.00
25650;BME280;13505;45.196;5.696;2024-01-07T19:37:14;98698.59;;;4.13;100.00
25650;BME280;13505;45.196;5.696;2024-01-07T19:42:08;98701.13;;;4.16;100.00
25650;BME280;13505;45.196;5.696;2024-01-07T19:46:58;98705.50;;;4.14;100.00
25650;BME280;13505;45.196;5.696;2024-01-07T19:51:49;98704.81;;;4.07;100.00
25650;BME280;13505;45.196;5.696;2024-01-07T19:56:39;98705.81;;;4.03;100.00
25650;BME280;13505;45.196;5.696;2024-01-07T20:01:30;98713.50;;;4.09;100.00
25650;BME280;13505;45.196;5.696;2024-01-07T20:06:20;98715.72;;;3.90;100.00
25650;BME280;13505;45.196;5.696;2024-01-07T20:11:23;98711.03;;;4.03;100.00
25650;BME280;13505;45.196;5.696;2024-01-07T20:16:15;98710.03;;;4.09;100.00
25650;BME280;13505;45.196;5.696;2024-01-07T20:21:06;98712.84;;;4.01;100.00
25650;BME280;13505;45.196;5.696;2024-01-07T20:25:56;98703.88;;;4.11;100.00
25650;BME280;13505;45.196;5.696;2024-01-07T20:30:47;98708.34;;;4.06;100.00
25650;BME280;13505;45.196;5.696;2024-01-07T20:35:38;98706.53;;;4.08;100.00
25650;BME280;13505;45.196;5.696;2024-01-07T20:40:29;98704.88;;;4.05;100.00
25650;BME280;13505;45.196;5.696;2024-01-07T20:45:19;98697.09;;;4.04;100.00
25650;BME280;13505;45.196;5.696;2024-01-07T20:50:10;98717.06;;;3.72;100.00
25650;BME280;13505;45.196;5.696;2024-01-07T20:55:00;98707.28;;;3.80;100.00
25650;BME280;13505;45.196;5.696;2024-01-07T20:59:51;98716.63;;;3.89;100.00
25650;BME280;13505;45.196;5.696;2024-01-07T21:04:43;98707.69;;;3.98;100.00
25650;BME280;13505;45.196;5.696;2024-01-07T21:09:34;98709.84;;;3.82;100.00
25650;BME280;13505;45.196;5.696;2024-01-07T21:14:25;98710.13;;;3.71;100.00
25650;BME280;13505;45.196;5.696;2024-01-07T21:19:15;98710.56;;;3.88;100.00
25650;BME280;13505;45.196;5.696;2024-01-07T21:24:05;98716.28;;;4.01;100.00
25650;BME280;13505;45.196;5.696;2024-01-07T21:28:56;98719.53;;;4.11;100.00
25650;BME280;13505;45.196;5.696;2024-01-07T21:33:47;98726.84;;;3.97;100.00
25650;BME280;13505;45.196;5.696;2024-01-07T21:38:38;98727.69;;;3.99;100.00
25650;BME280;13505;45.196;5.696;2024-01-07T21:43:29;98729.97;;;4.11;100.00
25650;BME280;13505;45.196;5.696;2024-01-07T21:48:22;98726.59;;;4.08;100.00
25650;BME280;13505;45.196;5.696;2024-01-07T21:53:14;98722.16;;;4.10;100.00
25650;BME280;13505;45.196;5.696;2024-01-07T21:58:04;98733.59;;;4.05;100.00
25650;BME280;13505;45.196;5.696;2024-01-07T22:02:54;98729.31;;;4.03;100.00
25650;BME280;13505;45.196;5.696;2024-01-07T22:07:45;98739.63;;;4.08;100.00
25650;BME280;13505;45.196;5.696;2024-01-07T22:12:35;98744.16;;;4.01;100.00
25650;BME280;13505;45.196;5.696;2024-01-07T22:17:25;98739.97;;;3.95;100.00
25650;BME280;13505;45.196;5.696;2024-01-07T22:22:16;98741.34;;;4.09;100.00
25650;BME280;13505;45.196;5.696;2024-01-07T22:27:07;98754.38;;;4.10;100.00
25650;BME280;13505;45.196;5.696;2024-01-07T22:31:57;98753.50;;;4.10;100.00
25650;BME280;13505;45.196;5.696;2024-01-07T22:36:48;98755.38;;;4.04;100.00
25650;BME280;13505;45.196;5.696;2024-01-07T22:41:42;98759.19;;;3.91;100.00
25650;BME280;13505;45.196;5.696;2024-01-07T22:46:33;98757.41;;;3.93;100.00
25650;BME280;13505;45.196;5.696;2024-01-07T22:51:23;98761.75;;;3.93;100.00
25650;BME280;13505;45.196;5.696;2024-01-07T22:56:13;98769.59;;;3.93;100.00
